Time;durP1;ratioP1;P1;durP2;ratioP2;P2;SDS_P1;SDS_P2;PMS_P1;PMS_P2;Temp;Humidity;BMP_temperature;BMP_pressure;BME280_temperature;BME280_humidity;BME280_pressure;Samples;Min_cycle;Max_cycle;Signal;HPM_P1;HPM_P2
2022/09/07 00:00:24;;;;;;;6.55;3.95;;;;;;;13.09;100.00;93591.69;5110081;28;20048;-73
2022/09/07 00:02:50;;;;;;;4.40;3.72;;;;;;;13.08;100.00;93597.84;5109674;28;20590;-73
2022/09/07 00:05:18;;;;;;;7.32;4.05;;;;;;;13.09;100.00;93596.84;5109831;28;20484;-73
2022/09/07 00:07:45;;;;;;;4.95;3.83;;;;;;;13.04;100.00;93592.34;5109822;28;20100;-73
2022/09/07 00:10:12;;;;;;;5.72;3.53;;;;;;;12.96;100.00;93588.25;5109887;28;20047;-73
2022/09/07 00:12:39;;;;;;;5.82;3.60;;;;;;;12.94;100.00;93586.91;5109801;28;20048;-73
2022/09/07 00:15:08;;;;;;;4.32;3.58;;;;;;;12.63;100.00;93550.72;5109355;28;20126;-73
2022/09/07 00:17:35;;;;;;;6.10;3.83;;;;;;;12.93;100.00;93600.81;5109437;28;20049;-72
2022/09/07 00:20:03;;;;;;;5.10;3.85;;;;;;;12.92;100.00;93596.66;5109432;28;20048;-73
2022/09/07 00:22:33;;;;;;;5.18;4.30;;;;;;;13.00;100.00;93593.78;5109661;28;20048;-73
2022/09/07 00:25:00;;;;;;;5.40;3.90;;;;;;;13.01;100.00;93592.00;5109148;28;20119;-72
2022/09/07 00:27:26;;;;;;;6.32;4.20;;;;;;;13.01;100.00;93594.56;5109326;28;20054;-72
2022/09/07 00:29:53;;;;;;;5.35;3.70;;;;;;;12.96;100.00;93584.88;5109112;28;20040;-72
2022/09/07 00:32:20;;;;;;;6.28;3.90;;;;;;;12.92;100.00;93584.53;5109248;28;20043;-72
2022/09/07 00:34:48;;;;;;;4.05;3.40;;;;;;;12.91;100.00;93585.53;5109484;28;20100;-72
2022/09/07 00:37:15;;;;;;;5.18;3.58;;;;;;;12.90;100.00;93598.63;5109441;28;20039;-72
2022/09/07 00:39:43;;;;;;;5.05;3.50;;;;;;;12.83;100.00;93594.34;5109164;28;20654;-72
2022/09/07 00:42:09;;;;;;;5.47;3.97;;;;;;;12.89;100.00;93603.03;5109422;28;20043;-72
2022/09/07 00:45:00;;;;;;;4.97;3.53;;;;;;;12.88;100.00;93603.22;5109271;28;20445;-72
2022/09/07 00:47:31;;;;;;;5.45;3.97;;;;;;;12.85;100.00;93595.91;5109523;28;20042;-72
2022/09/07 00:50:02;;;;;;;5.53;4.03;;;;;;;12.85;100.00;93599.28;5108923;28;20051;-72
2022/09/07 00:52:33;;;;;;;6.22;4.13;;;;;;;12.85;100.00;93588.19;5109192;28;20045;-72
2022/09/07 00:55:06;;;;;;;5.82;3.97;;;;;;;12.85;100.00;93590.75;5108835;28;20051;-72
2022/09/07 00:57:33;;;;;;;5.38;3.53;;;;;;;12.86;100.00;93590.53;5109176;28;20044;-72
2022/09/07 01:00:01;;;;;;;5.32;3.92;;;;;;;12.81;100.00;93573.16;5108982;28;20048;-72
2022/09/07 01:02:28;;;;;;;5.80;4.03;;;;;;;12.85;100.00;93573.50;5108907;28;20047;-72
2022/09/07 01:05:03;;;;;;;6.53;4.93;;;;;;;12.82;100.00;93573.91;5109138;28;20111;-72
2022/09/07 01:07:30;;;;;;;4.95;4.28;;;;;;;12.78;100.00;93576.16;5108842;28;20214;-72
2022/09/07 01:09:57;;;;;;;7.43;4.45;;;;;;;12.75;100.00;93575.78;5109001;28;20120;-73
2022/09/07 01:12:26;;;;;;;4.72;4.13;;;;;;;12.70;100.00;93571.28;5108918;28;20047;-73
2022/09/07 01:14:54;;;;;;;5.57;4.10;;;;;;;12.65;100.00;93573.72;5108888;28;20047;-72
2022/09/07 01:17:31;;;;;;;5.93;4.20;;;;;;;12.58;100.00;93576.34;5109089;28;20056;-72
2022/09/07 01:20:39;;;;;;;5.18;3.95;;;;;;;12.51;100.00;93575.63;5093247;28;20054;-72
2022/09/07 01:23:36;;;;;;;6.47;4.38;;;;;;;12.51;100.00;93575.63;5088902;28;20044;-72
2022/09/07 01:26:42;;;;;;;5.00;4.13;;;;;;;12.47;100.00;93575.25;5088700;28;20504;-72
2022/09/07 01:29:16;;;;;;;5.50;3.85;;;;;;;12.44;100.00;93580.81;5040593;28;20094;-72
2022/09/07 01:31:52;;;;;;;5.60;3.95;;;;;;;12.42;100.00;93575.09;5092763;28;20115;-72
2022/09/07 01:34:22;;;;;;;;;;;;;;;12.45;100.00;93581.63;5107447;28;20048;-72
2022/09/07 01:36:53;;;;;;;5.78;4.28;;;;;;;12.36;100.00;93574.16;5095122;28;20022;-72
2022/09/07 01:39:27;;;;;;;5.05;3.72;;;;;;;12.36;100.00;93576.72;5112212;27;20047;-72
2022/09/07 01:41:58;;;;;;;5.22;3.95;;;;;;;12.32;100.00;93572.22;5112930;28;20520;-72
2022/09/07 01:44:33;;;;;;;5.82;4.25;;;;;;;12.29;100.00;93576.00;5112981;28;20043;-72
2022/09/07 01:47:02;;;;;;;6.38;4.15;;;;;;;12.26;100.00;93579.78;5112525;28;20081;-72
2022/09/07 01:49:36;;;;;;;5.53;4.03;;;;;;;12.23;100.00;93580.19;5112418;28;20101;-72
2022/09/07 01:52:07;;;;;;;6.20;4.60;;;;;;;12.18;100.00;93580.06;5112517;28;20044;-72
2022/09/07 01:54:41;;;;;;;4.20;3.38;;;;;;;12.17;100.00;93578.47;5112129;28;20040;-73
2022/09/07 01:57:13;;;;;;;6.03;4.38;;;;;;;11.99;100.00;93561.94;5112261;28;20052;-73
2022/09/07 01:59:45;;;;;;;6.38;4.15;;;;;;;11.99;100.00;93582.53;5112407;28;20510;-73
2022/09/07 02:02:15;;;;;;;5.05;4.30;;;;;;;11.89;100.00;93564.19;5112083;27;20043;-73
2022/09/07 02:04:47;;;;;;;5.75;4.43;;;;;;;11.94;100.00;93571.28;5111963;28;20155;-73
2022/09/07 02:07:19;;;;;;;5.10;4.35;;;;;;;11.94;100.00;93579.00;5112669;28;20044;-73
2022/09/07 02:10:05;;;;;;;5.18;3.78;;;;;;;11.93;100.00;93572.28;5111804;28;20059;-72
2022/09/07 02:12:38;;;;;;;4.57;4.00;;;;;;;11.86;100.00;93573.09;5112183;28;20048;-72
2022/09/07 02:15:13;;;;;;;6.07;4.07;;;;;;;11.87;100.00;93568.75;5111799;28;20064;-73
2022/09/07 02:17:45;;;;;;;5.80;4.53;;;;;;;11.93;100.00;93577.44;5112118;28;20043;-72
2022/09/07 02:20:20;;;;;;;5.18;4.47;;;;;;;11.77;100.00;93554.56;5112037;27;20055;-72
2022/09/07 02:22:51;;;;;;;5.57;4.22;;;;;;;11.84;100.00;93566.59;5112153;27;20127;-72
2022/09/07 02:25:23;;;;;;;5.20;4.70;;;;;;;11.82;100.00;93568.59;5111763;28;20078;-72
2022/09/07 02:27:54;;;;;;;5.80;5.07;;;;;;;11.77;100.00;93564.06;5111737;28;20491;-73
2022/09/07 02:30:23;;;;;;;5.45;4.20;;;;;;;11.75;100.00;93564.28;5111727;27;20047;-73
2022/09/07 02:32:49;;;;;;;6.10;4.70;;;;;;;11.80;100.00;93563.63;5111388;28;20040;-73
2022/09/07 02:35:16;;;;;;;5.80;4.72;;;;;;;11.84;100.00;93553.72;5111494;28;20513;-73
2022/09/07 02:37:45;;;;;;;5.00;4.50;;;;;;;11.87;100.00;93558.47;5111160;28;20434;-72
2022/09/07 02:40:13;;;;;;;4.90;4.07;;;;;;;11.90;100.00;93560.63;5111022;28;20132;-72
2022/09/07 02:42:41;;;;;;;5.63;4.30;;;;;;;11.93;100.00;93560.19;5111508;28;20131;-73
2022/09/07 02:45:11;;;;;;;6.10;4.13;;;;;;;11.87;100.00;93566.19;5111177;28;20467;-72
2022/09/07 02:48:03;;;;;;;5.38;4.72;;;;;;;11.77;100.00;93554.56;5111838;28;20134;-72
2022/09/07 02:50:44;;;;;;;6.63;4.70;;;;;;;11.83;100.00;93557.28;5110422;28;20051;-72
2022/09/07 02:53:30;;;;;;;7.05;4.57;;;;;;;11.75;100.00;93548.84;5108598;28;20499;-73
2022/09/07 02:56:09;;;;;;;8.75;5.10;;;;;;;11.79;100.00;93556.91;5111247;28;20051;-73
2022/09/07 02:58:46;;;;;;;5.53;4.38;;;;;;;11.73;100.00;93568.06;5110858;28;20132;-72
2022/09/07 03:01:25;;;;;;;5.80;4.60;;;;;;;11.70;100.00;93574.41;5111018;28;20040;-72
2022/09/07 03:04:01;;;;;;;5.93;4.30;;;;;;;11.69;100.00;93570.25;5110964;28;20048;-72
2022/09/07 03:06:34;;;;;;;5.70;4.35;;;;;;;11.72;100.00;93577.53;5110511;28;20113;-72
2022/09/07 03:09:06;;;;;;;6.40;5.07;;;;;;;11.71;100.00;93572.63;5110869;28;20089;-72
2022/09/07 03:11:37;;;;;;;5.95;4.90;;;;;;;11.67;100.00;93571.47;5109876;28;20048;-73
2022/09/07 03:14:17;;;;;;;6.40;4.65;;;;;;;11.56;100.00;93554.88;5110292;28;20044;-73
2022/09/07 03:16:44;;;;;;;7.15;4.88;;;;;;;11.61;100.00;93573.84;5110953;28;20480;-72
2022/09/07 03:19:12;;;;;;;6.85;5.10;;;;;;;11.60;100.00;93569.72;5097377;28;20101;-72
2022/09/07 03:21:39;;;;;;;5.88;4.90;;;;;;;11.66;100.00;93573.22;5090833;28;20048;-73
2022/09/07 03:24:06;;;;;;;5.47;4.68;;;;;;;11.63;100.00;93578.81;5090909;28;20389;-73
2022/09/07 03:26:34;;;;;;;7.28;4.57;;;;;;;11.62;100.00;93574.66;5090496;28;20036;-73
2022/09/07 03:29:00;;;;;;;6.03;4.68;;;;;;;11.59;100.00;93575.84;5090385;28;20113;-73
2022/09/07 03:31:27;;;;;;;6.13;4.65;;;;;;;11.58;100.00;93578.63;5100728;28;20040;-73
2022/09/07 03:33:55;;;;;;;5.25;4.13;;;;;;;11.17;100.00;93537.69;5110267;28;20043;-73
2022/09/07 03:36:23;;;;;;;5.20;4.57;;;;;;;11.43;100.00;93571.19;5110379;28;20620;-73
2022/09/07 03:38:50;;;;;;;5.43;4.47;;;;;;;11.35;100.00;93579.94;5110020;28;20063;-72
2022/09/07 03:41:16;;;;;;;5.25;4.43;;;;;;;11.27;100.00;93585.28;5103234;28;20044;-73
2022/09/07 03:43:43;;;;;;;8.38;5.05;;;;;;;11.23;100.00;93590.84;5090093;28;20048;-73
2022/09/07 03:46:10;;;;;;;6.15;4.53;;;;;;;11.26;100.00;93592.22;5098953;28;20047;-73
2022/09/07 03:48:38;;;;;;;5.72;5.13;;;;;;;11.29;100.00;93594.38;5100406;27;20088;-72
2022/09/07 03:51:07;;;;;;;6.88;4.68;;;;;;;11.28;100.00;93592.00;5109314;28;20126;-72
2022/09/07 03:53:37;;;;;;;7.80;4.72;;;;;;;11.21;100.00;93586.91;5103423;27;20040;-72
2022/09/07 03:56:06;;;;;;;8.57;5.03;;;;;;;11.21;100.00;93589.47;5095157;27;20048;-72
2022/09/07 03:58:34;;;;;;;6.43;5.07;;;;;;;11.26;100.00;93591.44;5109583;27;20047;-72
2022/09/07 04:01:06;;;;;;;6.38;4.95;;;;;;;11.15;100.00;93577.44;5089998;28;20047;-72
2022/09/07 04:03:33;;;;;;;6.93;4.75;;;;;;;11.20;100.00;93587.91;5089904;28;20074;-72
2022/09/07 04:05:59;;;;;;;6.75;5.32;;;;;;;11.23;100.00;93588.28;5112276;27;20043;-72
2022/09/07 04:08:27;;;;;;;6.15;5.05;;;;;;;11.28;100.00;93595.38;5089885;28;20044;-72
2022/09/07 04:10:56;;;;;;;9.77;6.40;;;;;;;11.27;100.00;93596.38;5094844;28;20130;-72
2022/09/07 04:13:23;;;;;;;12.95;5.47;;;;;;;11.29;100.00;93603.91;5099517;28;20054;-72
2022/09/07 04:15:50;;;;;;;7.63;5.75;;;;;;;11.27;100.00;93596.38;5089648;28;20051;-72
2022/09/07 04:18:17;;;;;;;7.03;5.65;;;;;;;11.24;100.00;93591.63;5089996;28;20048;-72
2022/09/07 04:20:44;;;;;;;9.88;6.75;;;;;;;11.27;100.00;93598.94;5089606;28;20565;-73
2022/09/07 04:23:11;;;;;;;10.93;6.80;;;;;;;11.27;100.00;93600.72;5103348;27;20508;-72
2022/09/07 04:25:38;;;;;;;9.15;6.40;;;;;;;11.26;100.00;93597.38;5089777;28;20492;-73
2022/09/07 04:28:06;;;;;;;9.25;7.50;;;;;;;11.28;100.00;93599.72;5089387;28;20483;-73
2022/09/07 04:30:34;;;;;;;10.45;7.85;;;;;;;11.28;100.00;93594.59;5089747;28;20093;-72
2022/09/07 04:33:01;;;;;;;10.95;7.43;;;;;;;11.29;100.00;93593.59;5098319;28;20138;-72
2022/09/07 04:35:28;;;;;;;9.23;7.30;;;;;;;11.29;100.00;93601.31;5094789;28;20052;-71
2022/09/07 04:37:54;;;;;;;13.90;7.30;;;;;;;11.29;100.00;93593.59;5089720;28;20389;-71
2022/09/07 04:40:21;;;;;;;9.95;7.70;;;;;;;11.31;100.00;93597.56;5089053;28;20048;-71
2022/09/07 04:42:48;;;;;;;9.98;7.57;;;;;;;11.32;100.00;93596.56;5094372;28;20055;-72
2022/09/07 04:45:16;;;;;;;11.13;8.23;;;;;;;11.39;100.00;93598.31;5098281;28;20044;-72
2022/09/07 04:47:47;;;;;;;14.18;9.20;;;;;;;11.42;100.00;93600.47;5089323;28;20089;-72
2022/09/07 04:50:14;;;;;;;15.02;8.65;;;;;;;11.33;100.00;93589.63;5089561;28;20073;-72
2022/09/07 04:52:40;;;;;;;15.15;8.80;;;;;;;11.44;100.00;93609.56;5088969;28;20048;-72
2022/09/07 04:55:08;;;;;;;10.90;8.05;;;;;;;11.51;100.00;93604.38;5089172;28;20044;-72
2022/09/07 04:57:35;;;;;;;8.52;7.07;;;;;;;11.54;100.00;93605.75;5103255;28;20457;-72
2022/09/07 05:00:02;;;;;;;11.73;7.90;;;;;;;11.61;100.00;93603.94;5100655;28;20060;-72
2022/09/07 05:02:30;;;;;;;11.23;7.93;;;;;;;11.71;100.00;93608.66;5088849;28;20048;-72
2022/09/07 05:04:57;;;;;;;18.33;7.85;;;;;;;11.80;100.00;93607.41;5088854;28;20496;-72
2022/09/07 05:07:23;;;;;;;14.68;8.98;;;;;;;11.63;100.00;93571.84;5086782;28;20052;-72
2022/09/07 05:09:50;;;;;;;14.88;8.20;;;;;;;11.92;100.00;93604.97;5087121;28;20047;-72
2022/09/07 05:12:17;;;;;;;13.82;8.50;;;;;;;11.99;100.00;93610.84;5088546;28;20492;-72
2022/09/07 05:14:43;;;;;;;15.13;8.20;;;;;;;12.07;100.00;93603.91;5088602;28;20090;-72
2022/09/07 05:17:10;;;;;;;14.85;9.10;;;;;;;12.09;100.00;93610.41;5089109;28;20052;-72
2022/09/07 05:19:38;;;;;;;11.88;8.07;;;;;;;12.18;100.00;93610.97;5088618;28;20504;-72
2022/09/07 05:22:05;;;;;;;14.75;8.82;;;;;;;12.27;100.00;93606.34;5088921;28;20044;-73
2022/09/07 05:24:32;;;;;;;11.50;7.85;;;;;;;12.23;100.00;93594.88;5088766;28;20097;-72
2022/09/07 05:27:00;;;;;;;12.68;8.43;;;;;;;12.44;100.00;93614.31;5088506;28;20567;-72
2022/09/07 05:29:27;;;;;;;11.68;8.52;;;;;;;12.53;100.00;93601.97;5088653;28;20055;-72
2022/09/07 05:31:54;;;;;;;13.95;8.15;;;;;;;12.62;100.00;93605.84;5088597;28;20047;-72
2022/09/07 05:34:21;;;;;;;10.95;7.55;;;;;;;12.70;100.00;93605.56;5102694;28;20518;-72
2022/09/07 05:36:49;;;;;;;11.50;8.20;;;;;;;12.85;100.00;93607.03;5088603;28;20117;-72
2022/09/07 05:39:17;;;;;;;14.90;8.18;;;;;;;12.97;100.00;93596.81;5088736;28;20533;-73
2022/09/07 05:41:44;;;;;;;11.57;7.53;;;;;;;13.10;100.00;93608.75;5088402;28;20040;-72
2022/09/07 05:44:10;;;;;;;10.75;7.43;;;;;;;13.22;100.00;93614.78;5102253;28;20450;-72
2022/09/07 05:46:37;;;;;;;10.63;7.20;;;;;;;13.33;100.00;93610.66;5088551;28;20039;-72
2022/09/07 05:49:04;;;;;;;19.90;7.72;;;;;;;13.43;100.00;93611.97;5088615;28;20159;-72
2022/09/07 05:51:30;;;;;;;14.85;7.85;;;;;;;13.56;100.00;93608.47;5088699;28;20508;-72
2022/09/07 05:53:58;;;;;;;15.80;8.43;;;;;;;13.69;100.00;93604.91;5088591;28;20044;-72
2022/09/07 05:56:25;;;;;;;8.82;6.93;;;;;;;13.80;100.00;93601.56;5106158;28;20461;-73
2022/09/07 05:58:52;;;;;;;10.02;7.07;;;;;;;13.99;100.00;93617.81;5107183;28;20066;-73
2022/09/07 06:01:19;;;;;;;10.45;7.07;;;;;;;14.14;100.00;93626.94;5088483;28;20373;-72
2022/09/07 06:03:46;;;;;;;10.75;7.72;;;;;;;14.24;100.00;93619.44;5088404;28;20067;-72
2022/09/07 06:06:14;;;;;;;8.48;7.35;;;;;;;14.28;100.00;93619.78;5088505;28;20093;-72
2022/09/07 06:08:45;;;;;;;8.07;6.63;;;;;;;14.40;100.00;93615.41;5088522;28;20067;-72
2022/09/07 06:11:15;;;;;;;9.60;6.85;;;;;;;14.50;100.00;93611.50;5088743;28;20044;-73
2022/09/07 06:13:41;;;;;;;12.23;7.80;;;;;;;14.46;100.00;93608.59;5088888;28;20458;-73
2022/09/07 06:16:10;;;;;;;10.60;6.90;;;;;;;14.69;100.00;93625.13;5090376;28;20040;-73
2022/09/07 06:18:38;;;;;;;8.20;6.82;;;;;;;14.89;100.00;93621.41;5089956;28;20089;-73
2022/09/07 06:21:07;;;;;;;12.18;7.68;;;;;;;15.09;100.00;93621.84;5090659;28;20097;-73
2022/09/07 06:23:35;;;;;;;10.57;7.10;;;;;;;15.28;100.00;93623.53;5092022;28;20040;-73
2022/09/07 06:26:01;;;;;;;11.32;7.68;;;;;;;15.46;100.00;93628.53;5091569;28;20056;-74
2022/09/07 06:28:31;;;;;;;11.25;7.88;;;;;;;15.66;100.00;93629.94;5099080;28;20094;-74
2022/09/07 06:31:00;;;;;;;11.90;8.48;;;;;;;15.49;100.00;93629.88;5109242;28;20623;-74
2022/09/07 06:33:27;;;;;;;19.40;11.55;;;;;;;15.69;100.00;93632.06;5112170;28;20039;-74
2022/09/07 06:35:58;;;;;;;15.85;9.75;;;;;;;15.66;100.00;93624.78;5093233;28;20105;-74
2022/09/07 06:38:25;;;;;;;14.77;8.77;;;;;;;15.80;100.00;93624.47;5091740;28;20400;-74
2022/09/07 06:40:52;;;;;;;24.50;10.80;;;;;;;15.98;100.00;93621.72;5091139;28;20077;-74
2022/09/07 06:43:19;;;;;;;20.23;10.55;;;;;;;16.21;100.00;93629.63;5100574;28;20097;-74
2022/09/07 06:45:53;;;;;;;22.90;11.27;;;;;;;16.42;100.00;93626.34;5095767;28;20052;-74
2022/09/07 06:48:20;;;;;;;17.15;10.25;;;;;;;16.75;100.00;93649.91;5091978;28;20139;-74
2022/09/07 06:50:57;;;;;;;18.10;9.63;;;;;;;16.96;100.00;93637.22;5091450;28;20048;-74
2022/09/07 06:53:24;;;;;;;22.38;11.35;;;;;;;16.96;100.00;93652.78;5091265;28;20048;-74
2022/09/07 06:55:51;;;;;;;17.05;9.70;;;;;;;16.98;100.00;93653.31;5093833;27;20056;-74
2022/09/07 06:58:17;;;;;;;14.68;9.25;;;;;;;17.05;100.00;93650.59;5091350;28;20138;-74
2022/09/07 07:00:45;;;;;;;17.85;9.23;;;;;;;16.73;100.00;93654.53;5091271;28;20514;-74
2022/09/07 07:03:13;;;;;;;13.00;8.88;;;;;;;16.91;100.00;93637.16;5102605;28;20565;-74
2022/09/07 07:05:40;;;;;;;10.32;7.30;;;;;;;16.76;100.00;93635.91;5091064;28;20804;-74
2022/09/07 07:08:06;;;;;;;13.25;7.30;;;;;;;17.28;100.00;93648.81;5090794;28;20062;-73
2022/09/07 07:10:38;;;;;;;12.35;6.93;;;;;;;17.59;98.00;93649.19;5090833;28;20562;-73
2022/09/07 07:13:05;;;;;;;13.05;6.30;;;;;;;17.88;98.02;93649.75;5090708;28;20140;-74
2022/09/07 07:15:31;;;;;;;8.88;5.60;;;;;;;18.10;96.51;93664.56;5091167;28;20044;-74
2022/09/07 07:17:58;;;;;;;9.35;5.38;;;;;;;18.43;95.82;93662.78;5090544;28;20413;-73
2022/09/07 07:20:26;;;;;;;11.00;6.07;;;;;;;18.76;94.50;93665.41;5090813;28;20048;-73
2022/09/07 07:22:53;;;;;;;10.85;6.57;;;;;;;19.03;93.73;93646.31;5097792;28;20552;-73
2022/09/07 07:25:22;;;;;;;9.60;5.72;;;;;;;19.38;90.38;93670.19;5110027;28;20048;-74
2022/09/07 07:27:51;;;;;;;12.38;6.95;;;;;;;19.65;87.35;93668.50;5108473;28;20071;-74
2022/09/07 07:30:20;;;;;;;8.07;5.15;;;;;;;19.72;87.90;93664.59;5111268;27;20062;-73
2022/09/07 07:32:48;;;;;;;10.38;6.32;;;;;;;19.18;89.16;93669.06;5107355;28;20051;-74
2022/09/07 07:35:16;;;;;;;15.20;7.20;;;;;;;18.96;92.87;93667.34;5111060;28;20039;-74
2022/09/07 07:37:47;;;;;;;11.45;6.88;;;;;;;19.05;90.29;93675.50;5107855;28;20043;-74
2022/09/07 07:40:14;;;;;;;12.15;6.18;;;;;;;19.16;92.07;93672.97;5111232;28;20491;-74
2022/09/07 07:42:41;;;;;;;10.63;6.03;;;;;;;19.26;90.92;93661.81;5111356;28;20052;-74
2022/09/07 07:45:10;;;;;;;12.82;6.20;;;;;;;19.70;93.11;93660.69;5093433;28;20071;-73
2022/09/07 07:47:37;;;;;;;11.77;6.25;;;;;;;19.98;87.85;93680.38;5110219;28;20044;-73
2022/09/07 07:50:06;;;;;;;10.10;6.63;;;;;;;19.86;85.80;93669.38;5101420;28;20056;-72
2022/09/07 07:52:34;;;;;;;11.70;6.25;;;;;;;20.10;84.31;93676.75;5090369;28;20048;-73
2022/09/07 07:55:03;;;;;;;10.93;6.97;;;;;;;19.91;84.70;93682.41;5089920;28;20097;-73
2022/09/07 07:57:30;;;;;;;11.23;6.43;;;;;;;20.15;87.71;93666.31;5092652;27;20050;-73
2022/09/07 07:59:57;;;;;;;10.25;6.22;;;;;;;20.49;83.52;93670.25;5090101;28;20059;-73
2022/09/07 08:02:24;;;;;;;12.15;5.95;;;;;;;20.40;80.77;93668.19;5090182;28;20047;-74
2022/09/07 08:04:51;;;;;;;9.25;6.38;;;;;;;20.58;82.44;93662.69;5090162;28;20055;-74
2022/09/07 08:07:19;;;;;;;11.07;6.50;;;;;;;20.68;82.05;93668.72;5090210;28;20191;-73
2022/09/07 08:09:47;;;;;;;11.10;6.68;;;;;;;20.62;83.16;93659.31;5089633;28;20135;-73
2022/09/07 08:12:17;;;;;;;10.90;6.38;;;;;;;20.39;84.24;93640.53;5090369;28;20047;-73
2022/09/07 08:14:46;;;;;;;8.60;5.55;;;;;;;20.42;81.64;93628.78;5089866;28;20083;-73
2022/09/07 08:17:15;;;;;;;11.80;6.10;;;;;;;20.39;83.19;93642.34;5090027;28;20099;-73
2022/09/07 08:19:41;;;;;;;11.18;6.53;;;;;;;20.75;80.76;93658.03;5089436;28;20052;-74
2022/09/07 08:22:09;;;;;;;10.65;5.45;;;;;;;21.16;83.32;93644.13;5089872;28;20064;-74
2022/09/07 08:24:36;;;;;;;12.90;6.18;;;;;;;21.58;81.81;93652.59;5089778;28;20044;-73
2022/09/07 08:27:03;;;;;;;9.18;5.15;;;;;;;22.01;77.99;93659.25;5089575;28;20097;-74
2022/09/07 08:29:32;;;;;;;7.35;5.35;;;;;;;22.41;75.70;93665.28;5104878;28;20040;-74
2022/09/07 08:31:58;;;;;;;8.75;5.25;;;;;;;22.35;74.52;93650.66;5101128;28;20109;-74
2022/09/07 08:34:25;;;;;;;8.70;4.97;;;;;;;22.44;72.28;93656.09;5103401;28;20093;-74
2022/09/07 08:36:52;;;;;;;9.88;5.28;;;;;;;22.74;71.38;93656.16;5089192;28;20048;-74
2022/09/07 08:39:18;;;;;;;7.72;4.78;;;;;;;22.74;71.08;93654.34;5089195;28;20040;-74
2022/09/07 08:41:59;;;;;;;7.50;5.15;;;;;;;22.28;72.96;93644.97;5089206;28;20496;-73
2022/09/07 08:44:31;;;;;;;9.18;5.45;;;;;;;22.08;74.07;93649.25;5103128;28;20419;-74
2022/09/07 08:47:05;;;;;;;13.30;5.53;;;;;;;22.26;73.20;93644.47;5089310;28;20495;-74
2022/09/07 08:49:37;;;;;;;11.15;4.57;;;;;;;21.88;72.82;93650.16;5088667;28;20109;-74
2022/09/07 08:52:09;;;;;;;9.80;5.13;;;;;;;22.32;76.71;93634.72;5087848;28;20048;-74
2022/09/07 08:54:37;;;;;;;9.45;5.50;;;;;;;21.47;74.08;93630.97;5087000;28;20093;-74
2022/09/07 08:57:04;;;;;;;11.68;5.82;;;;;;;21.83;75.65;93635.28;5112199;27;20059;-74
2022/09/07 08:59:39;;;;;;;9.43;4.50;;;;;;;22.00;75.89;93631.53;5091084;27;20044;-74
2022/09/07 09:02:14;;;;;;;8.80;5.57;;;;;;;21.63;76.85;93636.13;5089049;28;20059;-73
2022/09/07 09:04:42;;;;;;;11.30;5.18;;;;;;;22.20;76.06;93625.38;5089022;28;20044;-74
2022/09/07 09:07:20;;;;;;;8.40;5.30;;;;;;;22.54;72.21;93626.50;5089310;28;20128;-74
2022/09/07 09:10:06;;;;;;;5.90;4.28;;;;;;;23.07;71.02;93624.94;5089023;28;20043;-74
2022/09/07 09:12:47;;;;;;;6.78;4.97;;;;;;;22.82;70.70;93618.91;5088746;28;20484;-74
2022/09/07 09:15:21;;;;;;;8.68;5.40;;;;;;;22.54;70.57;93623.88;5089181;28;20102;-74
2022/09/07 09:17:55;;;;;;;6.72;5.05;;;;;;;22.81;71.07;93623.38;5088756;28;20060;-74
2022/09/07 09:20:28;;;;;;;8.18;5.32;;;;;;;22.64;72.25;93612.53;5088484;28;20496;-74
2022/09/07 09:23:00;;;;;;;6.63;4.50;;;;;;;22.76;66.76;93625.22;5088569;28;20048;-74
2022/09/07 09:25:33;;;;;;;10.57;4.90;;;;;;;22.17;69.49;93589.28;5091427;28;20044;-74
2022/09/07 09:28:00;;;;;;;6.25;4.85;;;;;;;22.55;67.75;93612.34;5089323;28;20136;-74
2022/09/07 09:30:28;;;;;;;9.32;4.70;;;;;;;22.93;69.34;93603.88;5088579;28;20051;-74
2022/09/07 09:33:15;;;;;;;6.43;4.75;;;;;;;23.11;66.49;93620.72;5096593;28;20047;-74
2022/09/07 09:35:44;;;;;;;7.53;4.95;;;;;;;23.21;66.24;93611.97;5091753;28;20492;-74
2022/09/07 09:38:29;;;;;;;9.30;5.03;;;;;;;23.72;67.70;93610.63;5088796;28;20052;-74
2022/09/07 09:40:58;;;;;;;6.32;4.20;;;;;;;24.19;64.84;93614.44;5088887;28;20040;-74
2022/09/07 09:43:28;;;;;;;6.95;4.40;;;;;;;24.39;58.81;93611.53;5098733;28;20040;-74
2022/09/07 09:45:57;;;;;;;6.93;4.47;;;;;;;24.88;61.39;93598.16;5091956;28;20102;-74
2022/09/07 09:48:33;;;;;;;5.05;3.72;;;;;;;25.27;54.90;93590.84;5104367;28;20044;-75
2022/09/07 09:51:01;;;;;;;;;;;;;;;25.60;57.70;93585.50;5113040;28;20040;-74
2022/09/07 09:53:32;;;;;;;7.32;4.00;;;;;;;25.85;54.46;93588.66;5112561;28;19923;-75
2022/09/07 09:56:00;;;;;;;11.05;3.75;;;;;;;26.01;52.77;93575.94;5113641;27;20130;-75
2022/09/07 09:58:31;;;;;;;6.90;3.90;;;;;;;26.14;52.82;93565.63;5098224;28;20093;-75
2022/09/07 10:01:02;;;;;;;8.32;3.38;;;;;;;26.50;53.96;93566.66;5092349;28;20052;-75
2022/09/07 10:03:33;;;;;;;6.63;3.85;;;;;;;26.26;48.44;93551.97;5092208;28;20040;-75
2022/09/07 10:06:03;;;;;;;4.78;3.70;;;;;;;26.21;48.98;93560.75;5092051;28;20048;-75
2022/09/07 10:08:32;;;;;;;6.13;3.95;;;;;;;26.07;48.50;93554.75;5092122;28;20127;-75
2022/09/07 10:11:01;;;;;;;4.45;3.10;;;;;;;24.76;50.02;93555.78;5092034;28;20040;-75
2022/09/07 10:13:31;;;;;;;7.53;3.63;;;;;;;25.41;54.02;93545.38;5094456;28;20545;-75
2022/09/07 10:15:59;;;;;;;5.88;3.60;;;;;;;25.90;52.01;93535.13;5092328;28;20040;-75
2022/09/07 10:18:36;;;;;;;5.35;3.15;;;;;;;26.26;49.94;93531.69;5094184;28;20047;-75
2022/09/07 10:21:24;;;;;;;4.95;3.53;;;;;;;25.66;50.21;93538.03;5091564;28;20090;-76
2022/09/07 10:23:57;;;;;;;7.30;3.90;;;;;;;24.46;54.14;93535.00;5091963;28;20040;-75
2022/09/07 10:26:31;;;;;;;4.65;3.60;;;;;;;25.07;52.18;93531.56;5092891;28;20048;-75
2022/09/07 10:29:13;;;;;;;8.60;4.60;;;;;;;24.85;54.66;93511.25;5091183;28;20036;-75
2022/09/07 10:31:52;;;;;;;6.35;3.85;;;;;;;25.51;54.45;93518.06;5091712;28;20129;-75
2022/09/07 10:34:28;;;;;;;5.57;3.95;;;;;;;25.82;49.83;93510.31;5110686;28;20411;-75
2022/09/07 10:37:02;;;;;;;4.97;3.55;;;;;;;25.47;47.77;93523.16;5091661;28;20541;-75
2022/09/07 10:39:34;;;;;;;5.28;4.00;;;;;;;25.90;52.29;93516.72;5091596;28;20089;-75
2022/09/07 10:42:25;;;;;;;7.90;3.90;;;;;;;26.44;50.45;93525.72;5103374;28;20048;-75
2022/09/07 10:45:03;;;;;;;6.20;3.90;;;;;;;26.42;52.88;93510.22;5097296;28;20048;-74
2022/09/07 10:47:45;;;;;;;6.07;3.65;;;;;;;26.91;52.10;93515.56;5091677;28;20056;-75
2022/09/07 10:50:24;;;;;;;5.70;3.72;;;;;;;27.38;49.09;93516.94;5094151;28;20052;-75
2022/09/07 10:53:04;;;;;;;4.22;3.33;;;;;;;26.77;48.49;93512.25;5094167;28;20044;-75
2022/09/07 10:55:34;;;;;;;6.15;3.90;;;;;;;27.16;51.73;93502.78;5093598;28;20496;-75
2022/09/07 10:58:12;;;;;;;5.53;3.88;;;;;;;27.49;49.13;93509.47;5109271;27;20377;-75
2022/09/07 11:00:50;;;;;;;6.53;3.55;;;;;;;27.93;50.03;93506.09;5090512;28;20044;-75
2022/09/07 11:03:31;;;;;;;5.88;3.63;;;;;;;28.23;47.77;93500.97;5091188;28;20492;-75
2022/09/07 11:06:19;;;;;;;8.25;3.70;;;;;;;28.43;46.88;93496.09;5091257;28;20044;-75
2022/09/07 11:09:18;;;;;;;5.25;3.40;;;;;;;28.31;46.08;93494.88;5091025;28;20531;-76
2022/09/07 11:11:50;;;;;;;7.15;3.97;;;;;;;28.03;47.41;93474.09;5090824;28;20056;-75
2022/09/07 11:14:21;;;;;;;4.22;3.00;;;;;;;28.15;44.76;93490.06;5102149;28;20039;-75
2022/09/07 11:16:53;;;;;;;6.03;4.25;;;;;;;28.20;43.08;93481.22;5104477;28;20047;-75
2022/09/07 11:19:26;;;;;;;4.97;3.40;;;;;;;28.36;44.48;93486.00;5097899;28;20048;-75
2022/09/07 11:22:03;;;;;;;3.80;2.78;;;;;;;28.09;44.02;93461.50;5093107;28;20446;-76
2022/09/07 11:24:34;;;;;;;5.45;3.53;;;;;;;28.24;44.49;93491.94;5090778;28;20101;-75
2022/09/07 11:27:07;;;;;;;4.57;3.30;;;;;;;28.17;43.42;93475.78;5089973;28;20040;-75
2022/09/07 11:29:43;;;;;;;4.20;3.15;;;;;;;27.86;44.14;93474.91;5087871;28;20047;-75
2022/09/07 11:32:12;;;;;;;;;;;;;;;26.49;46.56;93483.47;5091891;28;20036;-75
2022/09/07 11:34:43;;;;;;;6.68;3.72;;;;;;;25.53;46.24;93453.59;5102834;28;19977;-75
2022/09/07 11:37:18;;;;;;;4.88;3.10;;;;;;;26.16;47.76;93479.25;5090766;28;20059;-76
2022/09/07 11:39:52;;;;;;;6.80;3.30;;;;;;;26.55;48.95;93476.97;5091023;28;20044;-75
2022/09/07 11:42:26;;;;;;;5.45;3.40;;;;;;;27.13;47.11;93477.03;5090832;28;20052;-75